sensor_id;sensor_type;location;lat;lon;timestamp;pressure;altitude;pressure_sealevel;temperature;humidity
59859;BME280;45734;53.648;9.566;2022-09-30T00:02:14;100615.25;;;8.06;100.00
59859;BME280;45734;53.648;9.566;2022-09-30T00:07:15;100606.50;;;7.96;100.00
59859;BME280;45734;53.648;9.566;2022-09-30T00:12:15;100613.38;;;7.89;100.00
59859;BME280;45734;53.648;9.566;2022-09-30T00:17:16;100622.59;;;7.85;100.00
59859;BME280;45734;53.648;9.566;2022-09-30T00:22:17;100613.09;;;7.82;100.00
59859;BME280;45734;53.648;9.566;2022-09-30T00:27:17;100620.81;;;7.76;100.00
59859;BME280;45734;53.648;9.566;2022-09-30T00:32:19;100623.53;;;7.66;100.00
59859;BME280;45734;53.648;9.566;2022-09-30T00:37:19;100616.16;;;7.60;100.00
59859;BME280;45734;53.648;9.566;2022-09-30T00:42:20;100629.69;;;7.57;100.00
59859;BME280;45734;53.648;9.566;2022-09-30T00:52:31;100618.81;;;7.50;100.00
59859;BME280;45734;53.648;9.566;2022-09-30T00:57:32;100634.47;;;7.43;100.00
59859;BME280;45734;53.648;9.566;2022-09-30T01:02:32;100633.22;;;7.38;100.00
59859;BME280;45734;53.648;9.566;2022-09-30T01:07:33;100645.50;;;7.39;100.00
59859;BME280;45734;53.648;9.566;2022-09-30T01:12:35;100646.47;;;7.38;100.00
59859;BME280;45734;53.648;9.566;2022-09-30T01:17:52;100643.13;;;7.36;100.00
59859;BME280;45734;53.648;9.566;2022-09-30T01:33:51;100641.03;;;7.30;100.00
59859;BME280;45734;53.648;9.566;2022-09-30T01:44:46;100643.72;;;7.20;100.00
59859;BME280;45734;53.648;9.566;2022-09-30T01:49:57;100645.09;;;7.14;100.00
59859;BME280;45734;53.648;9.566;2022-09-30T01:55:23;100651.69;;;7.10;100.00
59859;BME280;45734;53.648;9.566;2022-09-30T02:00:27;100647.34;;;7.09;100.00
59859;BME280;45734;53.648;9.566;2022-09-30T02:05:39;100651.09;;;7.07;100.00
59859;BME280;45734;53.648;9.566;2022-09-30T02:10:44;100647.63;;;7.06;100.00
59859;BME280;45734;53.648;9.566;2022-09-30T02:15:53;100653.47;;;7.10;100.00
59859;BME280;45734;53.648;9.566;2022-09-30T02:20:59;100657.38;;;7.15;100.00
59859;BME280;45734;53.648;9.566;2022-09-30T02:26:04;100658.63;;;7.21;100.00
59859;BME280;45734;53.648;9.566;2022-09-30T02:31:08;100662.22;;;7.30;100.00
59859;BME280;45734;53.648;9.566;2022-09-30T02:36:25;100660.81;;;7.35;100.00
59859;BME280;45734;53.648;9.566;2022-09-30T02:41:29;100662.38;;;7.38;100.00
59859;BME280;45734;53.648;9.566;2022-09-30T02:47:09;100663.06;;;7.40;100.00
59859;BME280;45734;53.648;9.566;2022-09-30T02:57:59;100677.56;;;7.45;100.00
59859;BME280;45734;53.648;9.566;2022-09-30T03:03:02;100686.31;;;7.56;100.00
59859;BME280;45734;53.648;9.566;2022-09-30T03:08:04;100691.31;;;7.68;100.00
59859;BME280;45734;53.648;9.566;2022-09-30T03:18:45;100704.94;;;7.83;100.00
59859;BME280;45734;53.648;9.566;2022-09-30T03:29:45;100711.78;;;7.86;100.00
59859;BME280;45734;53.648;9.566;2022-09-30T03:40:19;100718.19;;;7.93;100.00
59859;BME280;45734;53.648;9.566;2022-09-30T03:50:27;100709.09;;;7.96;100.00
59859;BME280;45734;53.648;9.566;2022-09-30T03:55:30;100711.88;;;7.94;100.00
59859;BME280;45734;53.648;9.566;2022-09-30T04:00:32;100721.66;;;7.93;100.00
59859;BME280;45734;53.648;9.566;2022-09-30T04:05:32;100733.97;;;7.94;100.00
59859;BME280;45734;53.648;9.566;2022-09-30T04:10:33;100725.00;;;7.96;100.00
59859;BME280;45734;53.648;9.566;2022-09-30T04:15:34;100735.31;;;7.99;100.00
59859;BME280;45734;53.648;9.566;2022-09-30T04:20:37;100742.28;;;8.00;100.00
59859;BME280;45734;53.648;9.566;2022-09-30T04:25:37;100742.00;;;8.03;100.00
59859;BME280;45734;53.648;9.566;2022-09-30T04:30:37;100741.03;;;8.04;100.00
59859;BME280;45734;53.648;9.566;2022-09-30T04:35:38;100755.13;;;8.04;100.00
59859;BME280;45734;53.648;9.566;2022-09-30T04:40:38;100765.47;;;8.07;100.00
59859;BME280;45734;53.648;9.566;2022-09-30T04:45:42;100763.50;;;8.09;100.00
59859;BME280;45734;53.648;9.566;2022-09-30T04:50:43;100777.44;;;8.11;100.00
59859;BME280;45734;53.648;9.566;2022-09-30T04:55:44;100772.13;;;8.11;100.00
59859;BME280;45734;53.648;9.566;2022-09-30T05:00:45;100779.13;;;8.12;100.00
59859;BME280;45734;53.648;9.566;2022-09-30T05:05:45;100794.06;;;8.13;100.00
59859;BME280;45734;53.648;9.566;2022-09-30T05:10:59;100793.09;;;8.14;100.00
59859;BME280;45734;53.648;9.566;2022-09-30T05:16:00;100796.44;;;8.16;100.00
59859;BME280;45734;53.648;9.566;2022-09-30T05:21:02;100799.91;;;8.17;100.00
59859;BME280;45734;53.648;9.566;2022-09-30T05:26:03;100802.44;;;8.19;100.00
59859;BME280;45734;53.648;9.566;2022-09-30T05:31:04;100802.16;;;8.22;100.00
59859;BME280;45734;53.648;9.566;2022-09-30T05:36:09;100799.59;;;8.30;100.00
59859;BME280;45734;53.648;9.566;2022-09-30T05:41:12;100806.34;;;8.89;100.00
59859;BME280;45734;53.648;9.566;2022-09-30T05:46:16;100796.34;;;9.72;100.00
59859;BME280;45734;53.648;9.566;2022-09-30T05:51:17;100801.09;;;10.65;100.00
59859;BME280;45734;53.648;9.566;2022-09-30T05:56:17;100807.28;;;11.49;100.00
59859;BME280;45734;53.648;9.566;2022-09-30T06:01:18;100815.22;;;12.47;100.00
59859;BME280;45734;53.648;9.566;2022-09-30T06:06:18;100813.03;;;13.52;100.00
59859;BME280;45734;53.648;9.566;2022-09-30T06:11:20;100821.81;;;14.37;100.00
59859;BME280;45734;53.648;9.566;2022-09-30T06:16:22;100814.41;;;14.98;100.00
59859;BME280;45734;53.648;9.566;2022-09-30T06:21:23;100828.97;;;15.25;100.00
59859;BME280;45734;53.648;9.566;2022-09-30T06:26:23;100829.03;;;15.96;100.00
59859;BME280;45734;53.648;9.566;2022-09-30T06:31:23;100838.50;;;16.77;100.00
59859;BME280;45734;53.648;9.566;2022-09-30T06:36:24;100841.94;;;17.18;100.00
59859;BME280;45734;53.648;9.566;2022-09-30T06:41:27;100833.78;;;17.73;100.00
59859;BME280;45734;53.648;9.566;2022-09-30T06:46:27;100838.16;;;18.21;100.00
59859;BME280;45734;53.648;9.566;2022-09-30T06:51:28;100850.13;;;18.65;100.00
59859;BME280;45734;53.648;9.566;2022-09-30T06:56:29;100842.56;;;18.93;100.00
59859;BME280;45734;53.648;9.566;2022-09-30T07:01:30;100855.69;;;19.28;100.00
59859;BME280;45734;53.648;9.566;2022-09-30T07:06:30;100849.72;;;19.58;100.00
59859;BME280;45734;53.648;9.566;2022-09-30T07:11:31;100856.50;;;19.74;100.00
59859;BME280;45734;53.648;9.566;2022-09-30T07:16:31;100855.78;;;19.85;100.00
59859;BME280;45734;53.648;9.566;2022-09-30T07:21:33;100855.56;;;19.86;100.00
59859;BME280;45734;53.648;9.566;2022-09-30T07:26:33;100859.22;;;19.99;100.00
59859;BME280;45734;53.648;9.566;2022-09-30T07:31:33;100849.78;;;20.08;100.00
59859;BME280;45734;53.648;9.566;2022-09-30T07:36:36;100869.03;;;20.18;100.00
59859;BME280;45734;53.648;9.566;2022-09-30T07:41:38;100864.69;;;20.17;100.00
59859;BME280;45734;53.648;9.566;2022-09-30T07:46:40;100875.88;;;20.21;100.00
59859;BME280;45734;53.648;9.566;2022-09-30T07:51:41;100860.97;;;20.11;100.00
59859;BME280;45734;53.648;9.566;2022-09-30T07:56:45;100863.03;;;19.91;100.00
59859;BME280;45734;53.648;9.566;2022-09-30T08:01:46;100868.25;;;19.86;100.00
59859;BME280;45734;53.648;9.566;2022-09-30T08:06:52;100862.38;;;19.64;100.00
59859;BME280;45734;53.648;9.566;2022-09-30T08:11:53;100868.22;;;19.54;100.00
59859;BME280;45734;53.648;9.566;2022-09-30T08:16:53;100862.63;;;19.56;100.00
59859;BME280;45734;53.648;9.566;2022-09-30T08:21:56;100872.28;;;19.38;100.00
59859;BME280;45734;53.648;9.566;2022-09-30T08:26:59;100868.56;;;19.33;100.00
59859;BME280;45734;53.648;9.566;2022-09-30T08:31:59;100863.75;;;19.41;100.00
59859;BME280;45734;53.648;9.566;2022-09-30T08:37:00;100871.31;;;19.26;100.00
59859;BME280;45734;53.648;9.566;2022-09-30T08:53:06;100875.59;;;19.40;100.00
59859;BME280;45734;53.648;9.566;2022-09-30T08:58:26;100885.16;;;19.36;100.00
59859;BME280;45734;53.648;9.566;2022-09-30T09:03:28;100896.72;;;19.05;100.00
59859;BME280;45734;53.648;9.566;2022-09-30T09:08:52;100892.66;;;18.83;100.00
59859;BME280;45734;53.648;9.566;2022-09-30T09:19:33;100906.59;;;18.53;100.00
59859;BME280;45734;53.648;9.566;2022-09-30T09:24:43;100899.53;;;18.52;100.00
59859;BME280;45734;53.648;9.566;2022-09-30T09:30:27;100902.22;;;18.52;100.00
59859;BME280;45734;53.648;9.566;2022-09-30T09:40:49;100907.81;;;18.64;100.00
59859;BME280;45734;53.648;9.566;2022-09-30T09:46:28;100909.50;;;18.25;100.00
59859;BME280;45734;53.648;9.566;2022-09-30T09:51:32;100905.16;;;18.24;100.00
59859;BME280;45734;53.648;9.566;2022-09-30T09:56:35;100905.78;;;18.39;100.00
59859;BME280;45734;53.648;9.566;2022-09-30T10:01:45;100901.84;;;18.15;100.00
59859;BME280;45734;53.648;9.566;2022-09-30T10:06:50;100911.84;;;17.40;100.00
59859;BME280;45734;53.648;9.566;2022-09-30T10:17:29;100912.91;;;17.52;100.00
59859;BME280;45734;53.648;9.566;2022-09-30T10:22:31;100911.66;;;17.00;100.00
59859;BME280;45734;53.648;9.566;2022-09-30T10:27:32;100908.56;;;16.75;100.00
59859;BME280;45734;53.648;9.566;2022-09-30T10:32:34;100910.22;;;16.41;100.00
59859;BME280;45734;53.648;9.566;2022-09-30T10:37:35;100905.66;;;16.42;100.00
59859;BME280;45734;53.648;9.566;2022-09-30T10:42:38;100903.53;;;16.59;100.00
59859;BME280;45734;53.648;9.566;2022-09-30T10:47:43;100908.91;;;16.59;100.00
59859;BME280;45734;53.648;9.566;2022-09-30T10:52:57;100912.94;;;16.48;100.00
59859;BME280;45734;53.648;9.566;2022-09-30T11:03:32;100911.41;;;16.11;100.00
59859;BME280;45734;53.648;9.566;2022-09-30T11:08:52;100911.09;;;15.99;100.00
59859;BME280;45734;53.648;9.566;2022-09-30T11:14:18;100913.13;;;16.18;100.00
59859;BME280;45734;53.648;9.566;2022-09-30T11:24:39;100903.38;;;16.39;100.00
59859;BME280;45734;53.648;9.566;2022-09-30T11:30:12;100903.81;;;16.42;100.00
59859;BME280;45734;53.648;9.566;2022-09-30T11:35:43;100906.56;;;16.21;100.00
59859;BME280;45734;53.648;9.566;2022-09-30T11:56:52;100894.22;;;16.33;100.00
59859;BME280;45734;53.648;9.566;2022-09-30T12:01:58;100889.28;;;16.37;100.00
59859;BME280;45734;53.648;9.566;2022-09-30T12:07:11;100888.50;;;16.71;100.00
59859;BME280;45734;53.648;9.566;2022-09-30T12:12:16;100891.53;;;16.61;100.00
59859;BME280;45734;53.648;9.566;2022-09-30T12:17:33;100886.19;;;16.68;100.00
59859;BME280;45734;53.648;9.566;2022-09-30T12:22:41;100885.31;;;16.61;100.00
59859;BME280;45734;53.648;9.566;2022-09-30T12:33:53;100871.88;;;16.61;100.00
59859;BME280;45734;53.648;9.566;2022-09-30T12:39:13;100889.97;;;16.45;100.00
59859;BME280;45734;53.648;9.566;2022-09-30T12:49:43;100889.72;;;16.12;100.00
59859;BME280;45734;53.648;9.566;2022-09-30T12:54:50;100871.63;;;15.99;100.00
59859;BME280;45734;53.648;9.566;2022-09-30T12:59:56;100862.44;;;15.87;100.00
59859;BME280;45734;53.648;9.566;2022-09-30T13:15:40;100869.78;;;15.78;100.00
59859;BME280;45734;53.648;9.566;2022-09-30T13:31:24;100867.69;;;15.95;100.00
59859;BME280;45734;53.648;9.566;2022-09-30T13:36:39;100854.75;;;15.84;100.00
59859;BME280;45734;53.648;9.566;2022-09-30T13:41:42;100858.06;;;15.65;100.00
59859;BME280;45734;53.648;9.566;2022-09-30T13:46:50;100851.75;;;15.51;100.00
59859;BME280;45734;53.648;9.566;2022-09-30T13:51:53;100848.84;;;15.52;100.00
59859;BME280;45734;53.648;9.566;2022-09-30T13:56:54;100847.25;;;15.36;100.00
59859;BME280;45734;53.648;9.566;2022-09-30T14:18:07;100841.56;;;15.25;100.00
59859;BME280;45734;53.648;9.566;2022-09-30T14:23:15;100841.94;;;15.22;100.00
59859;BME280;45734;53.648;9.566;2022-09-30T14:28:36;100839.53;;;15.12;100.00
59859;BME280;45734;53.648;9.566;2022-09-30T14:33:41;100846.31;;;15.08;100.00
59859;BME280;45734;53.648;9.566;2022-09-30T14:38:45;100832.47;;;14.89;100.00
59859;BME280;45734;53.648;9.566;2022-09-30T14:43:48;100821.56;;;14.76;100.00
59859;BME280;45734;53.648;9.566;2022-09-30T14:48:53;100840.34;;;14.76;100.00
59859;BME280;45734;53.648;9.566;2022-09-30T14:58:56;100836.53;;;14.70;100.00
59859;BME280;45734;53.648;9.566;2022-09-30T15:04:00;100824.91;;;14.63;100.00
59859;BME280;45734;53.648;9.566;2022-09-30T15:09:12;100831.56;;;14.53;100.00
59859;BME280;45734;53.648;9.566;2022-09-30T15:14:19;100832.53;;;14.37;100.00
59859;BME280;45734;53.648;9.566;2022-09-30T15:19:25;100820.97;;;14.21;100.00
59859;BME280;45734;53.648;9.566;2022-09-30T15:24:26;100824.81;;;14.04;100.00
59859;BME280;45734;53.648;9.566;2022-09-30T15:29:31;100831.69;;;13.84;100.00
59859;BME280;45734;53.648;9.566;2022-09-30T15:34:31;100824.09;;;13.72;100.00
59859;BME280;45734;53.648;9.566;2022-09-30T15:39:37;100805.31;;;13.57;100.00
59859;BME280;45734;53.648;9.566;2022-09-30T15:44:57;100830.88;;;13.60;100.00
59859;BME280;45734;53.648;9.566;2022-09-30T15:49:58;100820.06;;;13.53;100.00
59859;BME280;45734;53.648;9.566;2022-09-30T15:54:59;100818.94;;;13.48;100.00
59859;BME280;45734;53.648;9.566;2022-09-30T16:00:00;100825.72;;;13.35;100.00
59859;BME280;45734;53.648;9.566;2022-09-30T16:05:02;100833.94;;;13.26;100.00
59859;BME280;45734;53.648;9.566;2022-09-30T16:10:04;100817.66;;;13.04;100.00
59859;BME280;45734;53.648;9.566;2022-09-30T16:15:09;100825.72;;;12.96;100.00
59859;BME280;45734;53.648;9.566;2022-09-30T16:30:21;100820.41;;;12.49;100.00
59859;BME280;45734;53.648;9.566;2022-09-30T16:35:23;100825.44;;;12.35;100.00
59859;BME280;45734;53.648;9.566;2022-09-30T16:40:25;100827.97;;;12.20;100.00
59859;BME280;45734;53.648;9.566;2022-09-30T16:45:27;100822.00;;;12.10;100.00
59859;BME280;45734;53.648;9.566;2022-09-30T16:50:36;100831.53;;;11.96;100.00
59859;BME280;45734;53.648;9.566;2022-09-30T16:55:37;100824.31;;;11.81;100.00
59859;BME280;45734;53.648;9.566;2022-09-30T17:00:40;100820.31;;;11.68;100.00
59859;BME280;45734;53.648;9.566;2022-09-30T17:05:45;100821.66;;;11.56;100.00
59859;BME280;45734;53.648;9.566;2022-09-30T17:10:46;100809.63;;;11.36;100.00
59859;BME280;45734;53.648;9.566;2022-09-30T17:15:50;100821.28;;;11.26;100.00
59859;BME280;45734;53.648;9.566;2022-09-30T17:20:50;100816.25;;;11.15;100.00
59859;BME280;45734;53.648;9.566;2022-09-30T17:25:54;100822.56;;;11.06;100.00
59859;BME280;45734;53.648;9.566;2022-09-30T17:30:55;100813.88;;;11.04;100.00
59859;BME280;45734;53.648;9.566;2022-09-30T17:36:01;100822.22;;;11.01;100.00
59859;BME280;45734;53.648;9.566;2022-09-30T17:41:02;100824.53;;;10.96;100.00
59859;BME280;45734;53.648;9.566;2022-09-30T17:46:21;100823.50;;;10.88;100.00
59859;BME280;45734;53.648;9.566;2022-09-30T17:51:24;100826.97;;;10.81;100.00
59859;BME280;45734;53.648;9.566;2022-09-30T17:56:24;100837.06;;;10.69;100.00
59859;BME280;45734;53.648;9.566;2022-09-30T18:01:25;100809.69;;;10.51;100.00
59859;BME280;45734;53.648;9.566;2022-09-30T18:06:25;100809.84;;;10.49;100.00
59859;BME280;45734;53.648;9.566;2022-09-30T18:11:27;100825.44;;;10.44;100.00
59859;BME280;45734;53.648;9.566;2022-09-30T18:16:30;100823.66;;;10.45;100.00
59859;BME280;45734;53.648;9.566;2022-09-30T18:21:34;100823.66;;;10.45;100.00
59859;BME280;45734;53.648;9.566;2022-09-30T18:26:35;100817.44;;;10.36;100.00
59859;BME280;45734;53.648;9.566;2022-09-30T18:31:35;100810.75;;;10.32;100.00
59859;BME280;45734;53.648;9.566;2022-09-30T18:36:35;100814.34;;;10.23;100.00
59859;BME280;45734;53.648;9.566;2022-09-30T18:41:36;100805.00;;;10.18;100.00
59859;BME280;45734;53.648;9.566;2022-09-30T18:46:38;100803.94;;;10.11;100.00
59859;BME280;45734;53.648;9.566;2022-09-30T18:51:38;100803.06;;;10.03;100.00
59859;BME280;45734;53.648;9.566;2022-09-30T18:56:39;100796.38;;;9.98;100.00
59859;BME280;45734;53.648;9.566;2022-09-30T19:01:40;100798.34;;;9.96;100.00
59859;BME280;45734;53.648;9.566;2022-09-30T19:06:43;100794.34;;;9.92;100.00
59859;BME280;45734;53.648;9.566;2022-09-30T19:11:46;100795.81;;;9.87;100.00
59859;BME280;45734;53.648;9.566;2022-09-30T19:16:48;100786.69;;;9.89;100.00
59859;BME280;45734;53.648;9.566;2022-09-30T19:21:50;100785.31;;;9.85;100.00
59859;BME280;45734;53.648;9.566;2022-09-30T19:26:50;100773.94;;;9.75;100.00
59859;BME280;45734;53.648;9.566;2022-09-30T19:31:51;100782.38;;;9.70;100.00
59859;BME280;45734;53.648;9.566;2022-09-30T19:36:52;100764.78;;;9.51;100.00
59859;BME280;45734;53.648;9.566;2022-09-30T19:41:56;100774.50;;;9.43;100.00
59859;BME280;45734;53.648;9.566;2022-09-30T19:46:57;100775.66;;;9.40;100.00
59859;BME280;45734;53.648;9.566;2022-09-30T19:51:57;100763.94;;;9.33;100.00
59859;BME280;45734;53.648;9.566;2022-09-30T19:56:57;100757.41;;;9.27;100.00
59859;BME280;45734;53.648;9.566;2022-09-30T20:01:58;100760.38;;;9.24;100.00
59859;BME280;45734;53.648;9.566;2022-09-30T20:06:59;100743.06;;;9.20;100.00
59859;BME280;45734;53.648;9.566;2022-09-30T20:12:00;100730.41;;;9.14;100.00
59859;BME280;45734;53.648;9.566;2022-09-30T20:17:00;100735.72;;;9.14;100.00
59859;BME280;45734;53.648;9.566;2022-09-30T20:22:01;100718.56;;;9.09;100.00
59859;BME280;45734;53.648;9.566;2022-09-30T20:27:01;100728.78;;;9.03;100.00
59859;BME280;45734;53.648;9.566;2022-09-30T20:32:01;100726.75;;;8.97;100.00
59859;BME280;45734;53.648;9.566;2022-09-30T20:37:01;100722.13;;;8.99;100.00
59859;BME280;45734;53.648;9.566;2022-09-30T20:42:02;100710.81;;;8.97;100.00
59859;BME280;45734;53.648;9.566;2022-09-30T20:47:02;100714.69;;;9.03;100.00
59859;BME280;45734;53.648;9.566;2022-09-30T20:52:02;100703.22;;;9.02;100.00
59859;BME280;45734;53.648;9.566;2022-09-30T20:57:05;100707.53;;;9.03;100.00
59859;BME280;45734;53.648;9.566;2022-09-30T21:02:05;100700.25;;;9.05;100.00
59859;BME280;45734;53.648;9.566;2022-09-30T21:07:06;100694.94;;;9.05;100.00
59859;BME280;45734;53.648;9.566;2022-09-30T21:12:06;100702.59;;;9.09;100.00
59859;BME280;45734;53.648;9.566;2022-09-30T21:17:08;100692.13;;;9.07;100.00
59859;BME280;45734;53.648;9.566;2022-09-30T21:22:08;100678.00;;;9.06;100.00
59859;BME280;45734;53.648;9.566;2022-09-30T21:27:09;100669.41;;;9.13;100.00
59859;BME280;45734;53.648;9.566;2022-09-30T21:32:09;100675.81;;;9.20;100.00
59859;BME280;45734;53.648;9.566;2022-09-30T21:37:09;100668.34;;;9.23;100.00
59859;BME280;45734;53.648;9.566;2022-09-30T21:42:10;100660.28;;;9.33;100.00
59859;BME280;45734;53.648;9.566;2022-09-30T21:47:10;100665.19;;;9.46;100.00
59859;BME280;45734;53.648;9.566;2022-09-30T21:52:10;100666.84;;;9.47;100.00
59859;BME280;45734;53.648;9.566;2022-09-30T21:57:11;100644.38;;;9.41;100.00
59859;BME280;45734;53.648;9.566;2022-09-30T22:02:11;100648.03;;;9.40;100.00
59859;BME280;45734;53.648;9.566;2022-09-30T22:07:11;100646.22;;;9.41;100.00
59859;BME280;45734;53.648;9.566;2022-09-30T22:12:14;100634.13;;;9.46;100.00
59859;BME280;45734;53.648;9.566;2022-09-30T22:17:14;100623.31;;;9.48;100.00
59859;BME280;45734;53.648;9.566;2022-09-30T22:22:15;100637.19;;;9.60;100.00
59859;BME280;45734;53.648;9.566;2022-09-30T22:27:15;100622.59;;;9.64;100.00
59859;BME280;45734;53.648;9.566;2022-09-30T22:32:15;100628.94;;;9.71;100.00
59859;BME280;45734;53.648;9.566;2022-09-30T22:37:16;100623.75;;;9.61;100.00
59859;BME280;45734;53.648;9.566;2022-09-30T22:42:35;100615.25;;;9.58;100.00
59859;BME280;45734;53.648;9.566;2022-09-30T22:47:35;100610.41;;;9.53;100.00
59859;BME280;45734;53.648;9.566;2022-09-30T22:52:35;100612.91;;;9.55;100.00
59859;BME280;45734;53.648;9.566;2022-09-30T22:57:36;100585.22;;;9.39;100.00
59859;BME280;45734;53.648;9.566;2022-09-30T23:02:36;100593.72;;;9.43;100.00
59859;BME280;45734;53.648;9.566;2022-09-30T23:07:37;100588.72;;;9.40;100.00
59859;BME280;45734;53.648;9.566;2022-09-30T23:12:37;100586.41;;;9.45;100.00
59859;BME280;45734;53.648;9.566;2022-09-30T23:17:38;100578.41;;;9.37;100.00
59859;BME280;45734;53.648;9.566;2022-09-30T23:22:39;100575.91;;;9.35;100.00
59859;BME280;45734;53.648;9.566;2022-09-30T23:27:39;100553.44;;;9.29;100.00
59859;BME280;45734;53.648;9.566;2022-09-30T23:32:39;100552.59;;;9.29;100.00
59859;BME280;45734;53.648;9.566;2022-09-30T23:37:40;100539.78;;;9.24;100.00
59859;BME280;45734;53.648;9.566;2022-09-30T23:42:40;100533.28;;;9.19;100.00
59859;BME280;45734;53.648;9.566;2022-09-30T23:47:45;100514.97;;;9.07;100.00
59859;BME280;45734;53.648;9.566;2022-09-30T23:52:46;100522.44;;;9.12;100.00
59859;BME280;45734;53.648;9.566;2022-09-30T23:57:46;100523.28;;;9.13;100.00
